sensor_id;sensor_type;location;lat;lon;timestamp;P1;durP1;ratioP1;P2;durP2;ratioP2
20397;SDS011;10358;49.590;11.030;2023-08-31T00:01:30;4.77;;;3.30;;
20397;SDS011;10358;49.590;11.030;2023-08-31T00:03:56;7.60;;;3.85;;
20397;SDS011;10358;49.590;11.030;2023-08-31T00:06:21;7.23;;;3.83;;
20397;SDS011;10358;49.590;11.030;2023-08-31T00:08:47;7.72;;;4.30;;
20397;SDS011;10358;49.590;11.030;2023-08-31T00:11:13;7.93;;;4.53;;
20397;SDS011;10358;49.590;11.030;2023-08-31T00:13:39;7.22;;;4.38;;
20397;SDS011;10358;49.590;11.030;2023-08-31T00:16:05;8.02;;;4.72;;
20397;SDS011;10358;49.590;11.030;2023-08-31T00:18:31;6.88;;;4.43;;
20397;SDS011;10358;49.590;11.030;2023-08-31T00:20:57;6.32;;;3.95;;
20397;SDS011;10358;49.590;11.030;2023-08-31T00:23:23;6.55;;;4.63;;
20397;SDS011;10358;49.590;11.030;2023-08-31T00:25:48;7.88;;;5.28;;
20397;SDS011;10358;49.590;11.030;2023-08-31T00:28:14;7.17;;;5.27;;
20397;SDS011;10358;49.590;11.030;2023-08-31T00:30:40;10.03;;;4.80;;
20397;SDS011;10358;49.590;11.030;2023-08-31T00:33:07;7.10;;;4.90;;
20397;SDS011;10358;49.590;11.030;2023-08-31T00:35:33;8.40;;;5.03;;
20397;SDS011;10358;49.590;11.030;2023-08-31T00:37:59;6.38;;;4.43;;
20397;SDS011;10358;49.590;11.030;2023-08-31T00:40:25;8.65;;;4.93;;
20397;SDS011;10358;49.590;11.030;2023-08-31T00:42:51;10.03;;;4.60;;
20397;SDS011;10358;49.590;11.030;2023-08-31T00:45:17;5.90;;;4.43;;
20397;SDS011;10358;49.590;11.030;2023-08-31T00:47:44;6.70;;;4.60;;
20397;SDS011;10358;49.590;11.030;2023-08-31T00:50:12;7.50;;;4.53;;
20397;SDS011;10358;49.590;11.030;2023-08-31T00:52:37;6.13;;;4.53;;
20397;SDS011;10358;49.590;11.030;2023-08-31T00:55:03;7.10;;;4.60;;
20397;SDS011;10358;49.590;11.030;2023-08-31T00:57:30;8.40;;;5.03;;
20397;SDS011;10358;49.590;11.030;2023-08-31T00:59:56;8.87;;;4.77;;
20397;SDS011;10358;49.590;11.030;2023-08-31T01:02:34;11.50;;;5.70;;
20397;SDS011;10358;49.590;11.030;2023-08-31T01:07:53;7.55;;;5.22;;
20397;SDS011;10358;49.590;11.030;2023-08-31T01:10:32;8.45;;;4.95;;
20397;SDS011;10358;49.590;11.030;2023-08-31T01:13:13;7.80;;;5.18;;
20397;SDS011;10358;49.590;11.030;2023-08-31T01:15:49;7.72;;;4.82;;
20397;SDS011;10358;49.590;11.030;2023-08-31T01:18:18;8.13;;;4.80;;
20397;SDS011;10358;49.590;11.030;2023-08-31T01:20:52;5.47;;;4.53;;
20397;SDS011;10358;49.590;11.030;2023-08-31T01:23:29;5.82;;;4.68;;
20397;SDS011;10358;49.590;11.030;2023-08-31T01:26:09;9.63;;;4.60;;
20397;SDS011;10358;49.590;11.030;2023-08-31T01:28:35;6.45;;;4.55;;
20397;SDS011;10358;49.590;11.030;2023-08-31T01:31:04;7.13;;;4.68;;
20397;SDS011;10358;49.590;11.030;2023-08-31T01:33:34;5.75;;;4.47;;
20397;SDS011;10358;49.590;11.030;2023-08-31T01:36:00;7.60;;;4.68;;
20397;SDS011;10358;49.590;11.030;2023-08-31T01:38:33;7.20;;;4.57;;
20397;SDS011;10358;49.590;11.030;2023-08-31T01:41:03;7.63;;;4.82;;
20397;SDS011;10358;49.590;11.030;2023-08-31T01:43:35;5.85;;;4.65;;
20397;SDS011;10358;49.590;11.030;2023-08-31T01:46:02;10.07;;;4.93;;
20397;SDS011;10358;49.590;11.030;2023-08-31T01:48:28;6.22;;;4.57;;
20397;SDS011;10358;49.590;11.030;2023-08-31T01:50:54;6.85;;;4.93;;
20397;SDS011;10358;49.590;11.030;2023-08-31T01:53:19;7.53;;;5.40;;
20397;SDS011;10358;49.590;11.030;2023-08-31T01:55:45;7.45;;;4.90;;
20397;SDS011;10358;49.590;11.030;2023-08-31T01:58:10;9.38;;;4.95;;
20397;SDS011;10358;49.590;11.030;2023-08-31T02:00:36;8.27;;;5.38;;
20397;SDS011;10358;49.590;11.030;2023-08-31T02:03:03;10.25;;;4.65;;
20397;SDS011;10358;49.590;11.030;2023-08-31T02:05:29;7.73;;;4.83;;
20397;SDS011;10358;49.590;11.030;2023-08-31T02:07:55;7.70;;;4.80;;
20397;SDS011;10358;49.590;11.030;2023-08-31T02:10:20;8.13;;;4.93;;
20397;SDS011;10358;49.590;11.030;2023-08-31T02:12:46;6.38;;;4.65;;
20397;SDS011;10358;49.590;11.030;2023-08-31T02:15:12;8.07;;;5.13;;
20397;SDS011;10358;49.590;11.030;2023-08-31T02:17:37;8.17;;;4.87;;
20397;SDS011;10358;49.590;11.030;2023-08-31T02:20:03;9.87;;;4.50;;
20397;SDS011;10358;49.590;11.030;2023-08-31T02:22:31;9.03;;;4.80;;
20397;SDS011;10358;49.590;11.030;2023-08-31T02:24:59;7.97;;;4.53;;
20397;SDS011;10358;49.590;11.030;2023-08-31T02:27:26;8.97;;;4.80;;
20397;SDS011;10358;49.590;11.030;2023-08-31T02:29:51;8.77;;;4.80;;
20397;SDS011;10358;49.590;11.030;2023-08-31T02:32:17;5.60;;;4.60;;
20397;SDS011;10358;49.590;11.030;2023-08-31T02:34:42;6.67;;;4.70;;
20397;SDS011;10358;49.590;11.030;2023-08-31T02:37:08;10.33;;;4.30;;
20397;SDS011;10358;49.590;11.030;2023-08-31T02:39:33;7.83;;;4.40;;
20397;SDS011;10358;49.590;11.030;2023-08-31T02:41:59;5.60;;;3.87;;
20397;SDS011;10358;49.590;11.030;2023-08-31T02:44:25;6.83;;;4.43;;
20397;SDS011;10358;49.590;11.030;2023-08-31T02:46:50;4.97;;;3.67;;
20397;SDS011;10358;49.590;11.030;2023-08-31T02:49:16;6.95;;;4.18;;
20397;SDS011;10358;49.590;11.030;2023-08-31T02:51:41;5.40;;;4.03;;
20397;SDS011;10358;49.590;11.030;2023-08-31T02:54:07;4.53;;;3.87;;
20397;SDS011;10358;49.590;11.030;2023-08-31T02:56:32;7.70;;;4.10;;
20397;SDS011;10358;49.590;11.030;2023-08-31T02:58:58;7.20;;;3.80;;
20397;SDS011;10358;49.590;11.030;2023-08-31T03:01:23;5.80;;;4.33;;
20397;SDS011;10358;49.590;11.030;2023-08-31T03:03:49;7.37;;;3.80;;
20397;SDS011;10358;49.590;11.030;2023-08-31T03:06:16;5.37;;;4.03;;
20397;SDS011;10358;49.590;11.030;2023-08-31T03:08:42;8.20;;;3.90;;
20397;SDS011;10358;49.590;11.030;2023-08-31T03:11:08;7.90;;;3.90;;
20397;SDS011;10358;49.590;11.030;2023-08-31T03:13:34;7.67;;;4.40;;
20397;SDS011;10358;49.590;11.030;2023-08-31T03:16:01;7.73;;;4.13;;
20397;SDS011;10358;49.590;11.030;2023-08-31T03:18:27;6.37;;;3.90;;
20397;SDS011;10358;49.590;11.030;2023-08-31T03:20:54;6.53;;;3.90;;
20397;SDS011;10358;49.590;11.030;2023-08-31T03:23:20;5.07;;;4.20;;
20397;SDS011;10358;49.590;11.030;2023-08-31T03:25:46;8.13;;;4.30;;
20397;SDS011;10358;49.590;11.030;2023-08-31T03:28:12;6.30;;;4.17;;
20397;SDS011;10358;49.590;11.030;2023-08-31T03:30:38;6.50;;;4.50;;
20397;SDS011;10358;49.590;11.030;2023-08-31T03:33:05;7.70;;;4.20;;
20397;SDS011;10358;49.590;11.030;2023-08-31T03:35:32;7.73;;;4.43;;
20397;SDS011;10358;49.590;11.030;2023-08-31T03:37:58;6.37;;;4.50;;
20397;SDS011;10358;49.590;11.030;2023-08-31T03:40:24;5.63;;;4.13;;
20397;SDS011;10358;49.590;11.030;2023-08-31T03:42:50;8.37;;;4.57;;
20397;SDS011;10358;49.590;11.030;2023-08-31T03:45:17;6.80;;;4.37;;
20397;SDS011;10358;49.590;11.030;2023-08-31T03:47:43;5.90;;;4.40;;
20397;SDS011;10358;49.590;11.030;2023-08-31T03:50:09;8.27;;;4.50;;
20397;SDS011;10358;49.590;11.030;2023-08-31T03:52:35;7.57;;;4.30;;
20397;SDS011;10358;49.590;11.030;2023-08-31T03:55:01;7.30;;;4.50;;
20397;SDS011;10358;49.590;11.030;2023-08-31T03:57:27;8.20;;;4.67;;
20397;SDS011;10358;49.590;11.030;2023-08-31T03:59:53;6.63;;;4.47;;
20397;SDS011;10358;49.590;11.030;2023-08-31T04:02:19;8.33;;;4.43;;
20397;SDS011;10358;49.590;11.030;2023-08-31T04:04:45;6.77;;;4.67;;
20397;SDS011;10358;49.590;11.030;2023-08-31T04:07:11;7.60;;;4.57;;
20397;SDS011;10358;49.590;11.030;2023-08-31T04:09:37;9.43;;;4.30;;
20397;SDS011;10358;49.590;11.030;2023-08-31T04:12:03;8.57;;;4.57;;
20397;SDS011;10358;49.590;11.030;2023-08-31T04:14:29;8.17;;;4.80;;
20397;SDS011;10358;49.590;11.030;2023-08-31T04:16:55;7.60;;;5.17;;
20397;SDS011;10358;49.590;11.030;2023-08-31T04:19:21;9.00;;;4.60;;
20397;SDS011;10358;49.590;11.030;2023-08-31T04:21:47;8.93;;;4.87;;
20397;SDS011;10358;49.590;11.030;2023-08-31T04:24:13;7.23;;;4.97;;
20397;SDS011;10358;49.590;11.030;2023-08-31T04:26:39;9.73;;;4.80;;
20397;SDS011;10358;49.590;11.030;2023-08-31T04:29:05;6.73;;;4.70;;
20397;SDS011;10358;49.590;11.030;2023-08-31T04:31:32;9.33;;;5.43;;
20397;SDS011;10358;49.590;11.030;2023-08-31T04:33:58;8.70;;;4.93;;
20397;SDS011;10358;49.590;11.030;2023-08-31T04:36:24;9.07;;;5.00;;
20397;SDS011;10358;49.590;11.030;2023-08-31T04:38:50;8.73;;;5.37;;
20397;SDS011;10358;49.590;11.030;2023-08-31T04:41:17;6.57;;;4.80;;
20397;SDS011;10358;49.590;11.030;2023-08-31T04:43:43;7.30;;;5.10;;
20397;SDS011;10358;49.590;11.030;2023-08-31T04:46:09;7.30;;;5.13;;
20397;SDS011;10358;49.590;11.030;2023-08-31T04:48:35;8.43;;;5.20;;
20397;SDS011;10358;49.590;11.030;2023-08-31T04:51:01;8.03;;;4.70;;
20397;SDS011;10358;49.590;11.030;2023-08-31T04:53:28;8.47;;;4.90;;
20397;SDS011;10358;49.590;11.030;2023-08-31T04:55:55;9.47;;;5.40;;
20397;SDS011;10358;49.590;11.030;2023-08-31T04:58:21;13.00;;;5.20;;
20397;SDS011;10358;49.590;11.030;2023-08-31T05:00:47;9.00;;;5.37;;
20397;SDS011;10358;49.590;11.030;2023-08-31T05:03:13;8.77;;;5.47;;
20397;SDS011;10358;49.590;11.030;2023-08-31T05:05:39;12.87;;;4.97;;
20397;SDS011;10358;49.590;11.030;2023-08-31T05:08:09;9.57;;;4.93;;
20397;SDS011;10358;49.590;11.030;2023-08-31T05:10:35;11.90;;;5.10;;
20397;SDS011;10358;49.590;11.030;2023-08-31T05:13:01;9.07;;;5.10;;
20397;SDS011;10358;49.590;11.030;2023-08-31T05:15:28;8.17;;;4.73;;
20397;SDS011;10358;49.590;11.030;2023-08-31T05:17:55;7.13;;;4.87;;
20397;SDS011;10358;49.590;11.030;2023-08-31T05:20:21;9.43;;;4.77;;
20397;SDS011;10358;49.590;11.030;2023-08-31T05:22:51;9.43;;;4.67;;
20397;SDS011;10358;49.590;11.030;2023-08-31T05:25:23;9.10;;;5.00;;
20397;SDS011;10358;49.590;11.030;2023-08-31T05:27:54;8.90;;;5.10;;
20397;SDS011;10358;49.590;11.030;2023-08-31T05:30:37;10.10;;;4.87;;
20397;SDS011;10358;49.590;11.030;2023-08-31T05:33:19;7.77;;;4.90;;
20397;SDS011;10358;49.590;11.030;2023-08-31T05:35:55;13.40;;;5.00;;
20397;SDS011;10358;49.590;11.030;2023-08-31T05:38:44;6.93;;;4.67;;
20397;SDS011;10358;49.590;11.030;2023-08-31T05:41:13;8.90;;;5.10;;
20397;SDS011;10358;49.590;11.030;2023-08-31T05:43:49;8.67;;;5.00;;
20397;SDS011;10358;49.590;11.030;2023-08-31T05:46:25;11.60;;;5.20;;
20397;SDS011;10358;49.590;11.030;2023-08-31T05:48:54;8.57;;;5.33;;
20397;SDS011;10358;49.590;11.030;2023-08-31T05:51:20;13.30;;;5.57;;
20397;SDS011;10358;49.590;11.030;2023-08-31T06:05:29;8.88;;;4.30;;
20397;SDS011;10358;49.590;11.030;2023-08-31T06:07:56;7.63;;;5.40;;
20397;SDS011;10358;49.590;11.030;2023-08-31T06:10:22;15.75;;;6.15;;
20397;SDS011;10358;49.590;11.030;2023-08-31T06:12:48;7.90;;;6.18;;
20397;SDS011;10358;49.590;11.030;2023-08-31T06:15:15;12.63;;;6.85;;
20397;SDS011;10358;49.590;11.030;2023-08-31T06:17:41;12.43;;;7.55;;
20397;SDS011;10358;49.590;11.030;2023-08-31T06:20:06;11.38;;;7.57;;
20397;SDS011;10358;49.590;11.030;2023-08-31T06:22:33;10.48;;;7.38;;
20397;SDS011;10358;49.590;11.030;2023-08-31T06:24:59;16.85;;;8.45;;
20397;SDS011;10358;49.590;11.030;2023-08-31T06:27:25;15.07;;;8.17;;
20397;SDS011;10358;49.590;11.030;2023-08-31T06:29:50;13.90;;;8.20;;
20397;SDS011;10358;49.590;11.030;2023-08-31T06:32:16;10.95;;;7.57;;
20397;SDS011;10358;49.590;11.030;2023-08-31T06:34:43;13.18;;;7.20;;
20397;SDS011;10358;49.590;11.030;2023-08-31T06:37:09;13.98;;;8.05;;
20397;SDS011;10358;49.590;11.030;2023-08-31T06:39:35;10.70;;;8.18;;
20397;SDS011;10358;49.590;11.030;2023-08-31T06:42:01;10.57;;;7.73;;
20397;SDS011;10358;49.590;11.030;2023-08-31T06:44:27;12.45;;;7.75;;
20397;SDS011;10358;49.590;11.030;2023-08-31T06:46:54;13.52;;;8.15;;
20397;SDS011;10358;49.590;11.030;2023-08-31T06:49:20;11.85;;;8.10;;
20397;SDS011;10358;49.590;11.030;2023-08-31T06:51:46;11.07;;;7.87;;
20397;SDS011;10358;49.590;11.030;2023-08-31T06:54:12;10.80;;;7.43;;
20397;SDS011;10358;49.590;11.030;2023-08-31T06:56:37;13.73;;;7.82;;
20397;SDS011;10358;49.590;11.030;2023-08-31T06:59:03;11.10;;;6.78;;
20397;SDS011;10358;49.590;11.030;2023-08-31T07:01:29;12.85;;;6.93;;
20397;SDS011;10358;49.590;11.030;2023-08-31T07:03:54;15.52;;;7.40;;
20397;SDS011;10358;49.590;11.030;2023-08-31T07:06:20;12.70;;;7.23;;
20397;SDS011;10358;49.590;11.030;2023-08-31T07:08:46;10.30;;;6.95;;
20397;SDS011;10358;49.590;11.030;2023-08-31T07:11:12;9.43;;;6.28;;
20397;SDS011;10358;49.590;11.030;2023-08-31T07:13:39;10.35;;;6.40;;
20397;SDS011;10358;49.590;11.030;2023-08-31T07:16:05;10.43;;;6.65;;
20397;SDS011;10358;49.590;11.030;2023-08-31T07:18:30;10.15;;;5.82;;
20397;SDS011;10358;49.590;11.030;2023-08-31T07:20:56;11.52;;;6.03;;
20397;SDS011;10358;49.590;11.030;2023-08-31T07:23:22;11.18;;;6.05;;
20397;SDS011;10358;49.590;11.030;2023-08-31T07:25:48;13.95;;;5.95;;
20397;SDS011;10358;49.590;11.030;2023-08-31T07:28:14;8.15;;;5.57;;
20397;SDS011;10358;49.590;11.030;2023-08-31T07:30:39;10.60;;;6.07;;
20397;SDS011;10358;49.590;11.030;2023-08-31T07:33:05;11.68;;;6.38;;
20397;SDS011;10358;49.590;11.030;2023-08-31T07:35:32;8.55;;;5.75;;
20397;SDS011;10358;49.590;11.030;2023-08-31T07:37:57;9.52;;;5.38;;
20397;SDS011;10358;49.590;11.030;2023-08-31T07:40:23;9.48;;;5.30;;
20397;SDS011;10358;49.590;11.030;2023-08-31T07:42:50;12.60;;;5.07;;
20397;SDS011;10358;49.590;11.030;2023-08-31T07:45:16;11.00;;;4.78;;
20397;SDS011;10358;49.590;11.030;2023-08-31T07:47:41;10.18;;;4.57;;
20397;SDS011;10358;49.590;11.030;2023-08-31T07:50:07;10.85;;;4.63;;
20397;SDS011;10358;49.590;11.030;2023-08-31T07:52:33;9.13;;;4.32;;
20397;SDS011;10358;49.590;11.030;2023-08-31T07:54:59;9.57;;;4.63;;
20397;SDS011;10358;49.590;11.030;2023-08-31T07:57:25;8.50;;;3.92;;
20397;SDS011;10358;49.590;11.030;2023-08-31T07:59:51;12.05;;;4.00;;
20397;SDS011;10358;49.590;11.030;2023-08-31T08:02:16;9.55;;;3.55;;
20397;SDS011;10358;49.590;11.030;2023-08-31T08:04:42;14.57;;;3.53;;
20397;SDS011;10358;49.590;11.030;2023-08-31T08:07:10;9.52;;;3.58;;
20397;SDS011;10358;49.590;11.030;2023-08-31T08:09:35;5.03;;;2.88;;
20397;SDS011;10358;49.590;11.030;2023-08-31T08:12:01;10.20;;;3.25;;
20397;SDS011;10358;49.590;11.030;2023-08-31T08:14:27;5.25;;;3.05;;
20397;SDS011;10358;49.590;11.030;2023-08-31T08:16:53;6.60;;;2.80;;
20397;SDS011;10358;49.590;11.030;2023-08-31T08:19:22;9.70;;;2.67;;
20397;SDS011;10358;49.590;11.030;2023-08-31T08:21:48;6.05;;;2.70;;
20397;SDS011;10358;49.590;11.030;2023-08-31T08:24:14;4.50;;;2.40;;
20397;SDS011;10358;49.590;11.030;2023-08-31T08:26:40;7.18;;;2.90;;
20397;SDS011;10358;49.590;11.030;2023-08-31T08:29:06;6.57;;;2.50;;
20397;SDS011;10358;49.590;11.030;2023-08-31T08:31:31;8.73;;;2.42;;
20397;SDS011;10358;49.590;11.030;2023-08-31T08:33:57;10.65;;;2.35;;
20397;SDS011;10358;49.590;11.030;2023-08-31T08:36:22;6.18;;;2.40;;
20397;SDS011;10358;49.590;11.030;2023-08-31T08:38:48;5.03;;;2.60;;
20397;SDS011;10358;49.590;11.030;2023-08-31T08:41:14;5.90;;;2.08;;
20397;SDS011;10358;49.590;11.030;2023-08-31T08:43:39;4.05;;;2.15;;
20397;SDS011;10358;49.590;11.030;2023-08-31T08:46:09;4.25;;;1.92;;
20397;SDS011;10358;49.590;11.030;2023-08-31T08:48:35;7.32;;;2.00;;
20397;SDS011;10358;49.590;11.030;2023-08-31T08:51:03;4.03;;;2.20;;
20397;SDS011;10358;49.590;11.030;2023-08-31T08:53:29;6.20;;;1.75;;
20397;SDS011;10358;49.590;11.030;2023-08-31T08:55:54;5.18;;;2.08;;
20397;SDS011;10358;49.590;11.030;2023-08-31T08:58:20;4.07;;;1.83;;
20397;SDS011;10358;49.590;11.030;2023-08-31T09:00:46;5.80;;;2.33;;
20397;SDS011;10358;49.590;11.030;2023-08-31T09:03:12;4.85;;;1.83;;
20397;SDS011;10358;49.590;11.030;2023-08-31T09:05:38;6.88;;;2.03;;
20397;SDS011;10358;49.590;11.030;2023-08-31T09:08:05;3.90;;;1.80;;
20397;SDS011;10358;49.590;11.030;2023-08-31T09:10:41;4.13;;;1.88;;
20397;SDS011;10358;49.590;11.030;2023-08-31T09:13:11;6.10;;;2.00;;
20397;SDS011;10358;49.590;11.030;2023-08-31T09:18:05;4.63;;;2.10;;
20397;SDS011;10358;49.590;11.030;2023-08-31T09:20:30;4.75;;;1.90;;
20397;SDS011;10358;49.590;11.030;2023-08-31T09:22:56;4.68;;;1.90;;
20397;SDS011;10358;49.590;11.030;2023-08-31T09:25:21;4.22;;;1.80;;
20397;SDS011;10358;49.590;11.030;2023-08-31T09:27:48;4.43;;;1.77;;
20397;SDS011;10358;49.590;11.030;2023-08-31T09:30:14;3.30;;;1.83;;
20397;SDS011;10358;49.590;11.030;2023-08-31T09:32:39;5.15;;;1.98;;
20397;SDS011;10358;49.590;11.030;2023-08-31T09:35:09;5.32;;;2.20;;
20397;SDS011;10358;49.590;11.030;2023-08-31T09:37:36;4.53;;;1.75;;
20397;SDS011;10358;49.590;11.030;2023-08-31T09:40:05;5.13;;;2.00;;
20397;SDS011;10358;49.590;11.030;2023-08-31T09:42:40;5.18;;;2.03;;
20397;SDS011;10358;49.590;11.030;2023-08-31T09:45:06;5.22;;;1.80;;
20397;SDS011;10358;49.590;11.030;2023-08-31T09:47:31;3.15;;;1.70;;
20397;SDS011;10358;49.590;11.030;2023-08-31T09:49:58;5.00;;;1.85;;
20397;SDS011;10358;49.590;11.030;2023-08-31T09:52:24;6.20;;;1.88;;
20397;SDS011;10358;49.590;11.030;2023-08-31T09:54:50;4.93;;;2.00;;
20397;SDS011;10358;49.590;11.030;2023-08-31T09:57:18;5.15;;;1.70;;
20397;SDS011;10358;49.590;11.030;2023-08-31T09:59:45;7.13;;;1.77;;
20397;SDS011;10358;49.590;11.030;2023-08-31T10:02:11;4.93;;;1.88;;
20397;SDS011;10358;49.590;11.030;2023-08-31T10:04:40;3.42;;;1.80;;
20397;SDS011;10358;49.590;11.030;2023-08-31T10:07:07;5.03;;;2.00;;
20397;SDS011;10358;49.590;11.030;2023-08-31T10:09:35;5.47;;;1.90;;
20397;SDS011;10358;49.590;11.030;2023-08-31T10:12:02;4.85;;;1.90;;
20397;SDS011;10358;49.590;11.030;2023-08-31T10:14:29;5.18;;;1.80;;
20397;SDS011;10358;49.590;11.030;2023-08-31T10:16:55;3.40;;;1.85;;
20397;SDS011;10358;49.590;11.030;2023-08-31T10:19:22;5.03;;;1.95;;
20397;SDS011;10358;49.590;11.030;2023-08-31T10:21:48;4.15;;;1.98;;
20397;SDS011;10358;49.590;11.030;2023-08-31T10:24:14;5.75;;;2.00;;
20397;SDS011;10358;49.590;11.030;2023-08-31T10:26:40;4.97;;;1.88;;
20397;SDS011;10358;49.590;11.030;2023-08-31T10:29:05;3.70;;;1.83;;
20397;SDS011;10358;49.590;11.030;2023-08-31T10:31:32;4.32;;;1.77;;
20397;SDS011;10358;49.590;11.030;2023-08-31T10:33:59;5.85;;;2.00;;
20397;SDS011;10358;49.590;11.030;2023-08-31T10:36:35;3.47;;;2.03;;
20397;SDS011;10358;49.590;11.030;2023-08-31T10:39:04;3.47;;;1.90;;
20397;SDS011;10358;49.590;11.030;2023-08-31T10:41:33;3.58;;;2.20;;
20397;SDS011;10358;49.590;11.030;2023-08-31T10:44:00;4.28;;;1.90;;
20397;SDS011;10358;49.590;11.030;2023-08-31T10:46:27;4.93;;;2.10;;
20397;SDS011;10358;49.590;11.030;2023-08-31T10:51:34;4.72;;;2.00;;
20397;SDS011;10358;49.590;11.030;2023-08-31T10:59:40;6.90;;;2.00;;
20397;SDS011;10358;49.590;11.030;2023-08-31T11:02:38;5.97;;;2.42;;
20397;SDS011;10358;49.590;11.030;2023-08-31T11:07:34;7.93;;;2.58;;
20397;SDS011;10358;49.590;11.030;2023-08-31T11:12:42;8.02;;;2.30;;
20397;SDS011;10358;49.590;11.030;2023-08-31T11:15:10;4.90;;;2.00;;
20397;SDS011;10358;49.590;11.030;2023-08-31T11:17:39;10.75;;;2.60;;
20397;SDS011;10358;49.590;11.030;2023-08-31T11:20:05;3.83;;;2.20;;
20397;SDS011;10358;49.590;11.030;2023-08-31T11:22:34;11.38;;;2.42;;
20397;SDS011;10358;49.590;11.030;2023-08-31T11:25:03;5.07;;;2.30;;
20397;SDS011;10358;49.590;11.030;2023-08-31T11:27:28;5.75;;;2.17;;
20397;SDS011;10358;49.590;11.030;2023-08-31T11:29:54;3.45;;;2.00;;
20397;SDS011;10358;49.590;11.030;2023-08-31T11:32:22;3.60;;;2.20;;
20397;SDS011;10358;49.590;11.030;2023-08-31T11:34:49;5.28;;;2.20;;
20397;SDS011;10358;49.590;11.030;2023-08-31T11:37:15;6.40;;;2.33;;
20397;SDS011;10358;49.590;11.030;2023-08-31T11:39:42;4.03;;;2.00;;
20397;SDS011;10358;49.590;11.030;2023-08-31T11:42:13;4.90;;;2.22;;
20397;SDS011;10358;49.590;11.030;2023-08-31T11:44:39;6.60;;;2.10;;
20397;SDS011;10358;49.590;11.030;2023-08-31T11:47:05;4.88;;;1.70;;
20397;SDS011;10358;49.590;11.030;2023-08-31T11:49:30;6.72;;;1.98;;
20397;SDS011;10358;49.590;11.030;2023-08-31T11:51:57;8.57;;;2.08;;
20397;SDS011;10358;49.590;11.030;2023-08-31T11:54:24;4.53;;;1.90;;
20397;SDS011;10358;49.590;11.030;2023-08-31T11:56:50;3.13;;;1.90;;
20397;SDS011;10358;49.590;11.030;2023-08-31T11:59:16;3.55;;;1.90;;
20397;SDS011;10358;49.590;11.030;2023-08-31T12:01:48;5.45;;;1.90;;
20397;SDS011;10358;49.590;11.030;2023-08-31T12:04:23;6.43;;;2.20;;
20397;SDS011;10358;49.590;11.030;2023-08-31T12:06:50;3.95;;;1.90;;
20397;SDS011;10358;49.590;11.030;2023-08-31T12:09:17;5.57;;;2.15;;
20397;SDS011;10358;49.590;11.030;2023-08-31T12:11:49;4.18;;;1.92;;
20397;SDS011;10358;49.590;11.030;2023-08-31T12:14:23;7.28;;;2.17;;
20397;SDS011;10358;49.590;11.030;2023-08-31T12:16:50;6.60;;;2.15;;
20397;SDS011;10358;49.590;11.030;2023-08-31T12:19:17;3.72;;;1.92;;
20397;SDS011;10358;49.590;11.030;2023-08-31T12:21:43;4.45;;;1.80;;
20397;SDS011;10358;49.590;11.030;2023-08-31T12:24:10;3.55;;;1.75;;
20397;SDS011;10358;49.590;11.030;2023-08-31T12:26:36;3.92;;;1.95;;
20397;SDS011;10358;49.590;11.030;2023-08-31T12:29:02;4.55;;;1.92;;
20397;SDS011;10358;49.590;11.030;2023-08-31T12:31:29;4.78;;;1.88;;
20397;SDS011;10358;49.590;11.030;2023-08-31T12:33:55;6.45;;;1.77;;
20397;SDS011;10358;49.590;11.030;2023-08-31T12:36:21;6.40;;;1.80;;
20397;SDS011;10358;49.590;11.030;2023-08-31T12:38:47;5.80;;;1.83;;
20397;SDS011;10358;49.590;11.030;2023-08-31T12:41:12;5.35;;;1.75;;
20397;SDS011;10358;49.590;11.030;2023-08-31T12:43:38;7.63;;;1.83;;
20397;SDS011;10358;49.590;11.030;2023-08-31T12:46:04;5.85;;;1.73;;
20397;SDS011;10358;49.590;11.030;2023-08-31T12:48:34;5.43;;;1.73;;
20397;SDS011;10358;49.590;11.030;2023-08-31T12:51:00;7.75;;;2.10;;
20397;SDS011;10358;49.590;11.030;2023-08-31T12:53:25;6.05;;;2.22;;
20397;SDS011;10358;49.590;11.030;2023-08-31T12:55:52;4.43;;;1.90;;
20397;SDS011;10358;49.590;11.030;2023-08-31T12:58:18;5.05;;;2.10;;
20397;SDS011;10358;49.590;11.030;2023-08-31T13:00:44;3.55;;;1.80;;
20397;SDS011;10358;49.590;11.030;2023-08-31T13:03:12;6.55;;;2.00;;
20397;SDS011;10358;49.590;11.030;2023-08-31T13:05:38;3.33;;;1.70;;
20397;SDS011;10358;49.590;11.030;2023-08-31T13:08:05;4.03;;;1.70;;
20397;SDS011;10358;49.590;11.030;2023-08-31T13:10:31;4.65;;;1.67;;
20397;SDS011;10358;49.590;11.030;2023-08-31T13:12:56;2.88;;;1.80;;
20397;SDS011;10358;49.590;11.030;2023-08-31T13:15:22;4.88;;;1.90;;
20397;SDS011;10358;49.590;11.030;2023-08-31T13:17:48;5.28;;;1.70;;
20397;SDS011;10358;49.590;11.030;2023-08-31T13:20:13;3.53;;;1.70;;
20397;SDS011;10358;49.590;11.030;2023-08-31T13:22:39;3.97;;;1.77;;
20397;SDS011;10358;49.590;11.030;2023-08-31T13:25:04;5.45;;;1.75;;
20397;SDS011;10358;49.590;11.030;2023-08-31T13:27:30;4.45;;;2.00;;
20397;SDS011;10358;49.590;11.030;2023-08-31T13:29:58;2.90;;;1.70;;
20397;SDS011;10358;49.590;11.030;2023-08-31T13:32:24;5.03;;;1.80;;
20397;SDS011;10358;49.590;11.030;2023-08-31T13:34:49;7.28;;;1.85;;
20397;SDS011;10358;49.590;11.030;2023-08-31T13:37:15;3.33;;;1.67;;
20397;SDS011;10358;49.590;11.030;2023-08-31T13:39:40;4.95;;;2.08;;
20397;SDS011;10358;49.590;11.030;2023-08-31T13:42:06;5.47;;;1.70;;
20397;SDS011;10358;49.590;11.030;2023-08-31T13:44:32;4.93;;;1.63;;
20397;SDS011;10358;49.590;11.030;2023-08-31T13:46:58;3.42;;;1.52;;
20397;SDS011;10358;49.590;11.030;2023-08-31T13:49:24;3.58;;;1.65;;
20397;SDS011;10358;49.590;11.030;2023-08-31T13:51:49;7.15;;;1.50;;
20397;SDS011;10358;49.590;11.030;2023-08-31T13:54:15;4.97;;;1.83;;
20397;SDS011;10358;49.590;11.030;2023-08-31T13:56:41;3.05;;;1.60;;
20397;SDS011;10358;49.590;11.030;2023-08-31T13:59:07;3.25;;;1.52;;
20397;SDS011;10358;49.590;11.030;2023-08-31T14:01:33;4.63;;;1.73;;
20397;SDS011;10358;49.590;11.030;2023-08-31T14:03:59;3.53;;;1.50;;
20397;SDS011;10358;49.590;11.030;2023-08-31T14:06:24;4.68;;;1.73;;
20397;SDS011;10358;49.590;11.030;2023-08-31T14:08:50;4.18;;;1.70;;
20397;SDS011;10358;49.590;11.030;2023-08-31T14:11:15;4.32;;;1.52;;
20397;SDS011;10358;49.590;11.030;2023-08-31T14:13:42;3.58;;;1.70;;
20397;SDS011;10358;49.590;11.030;2023-08-31T14:16:11;4.40;;;1.80;;
20397;SDS011;10358;49.590;11.030;2023-08-31T14:18:37;7.40;;;1.70;;
20397;SDS011;10358;49.590;11.030;2023-08-31T14:21:02;3.33;;;1.67;;
20397;SDS011;10358;49.590;11.030;2023-08-31T14:23:29;3.45;;;1.60;;
20397;SDS011;10358;49.590;11.030;2023-08-31T14:26:00;2.83;;;1.63;;
20397;SDS011;10358;49.590;11.030;2023-08-31T14:28:26;3.40;;;1.60;;
20397;SDS011;10358;49.590;11.030;2023-08-31T14:30:52;4.47;;;1.80;;
20397;SDS011;10358;49.590;11.030;2023-08-31T14:33:17;3.75;;;1.80;;
20397;SDS011;10358;49.590;11.030;2023-08-31T14:35:43;2.78;;;1.63;;
20397;SDS011;10358;49.590;11.030;2023-08-31T14:38:09;3.97;;;1.80;;
20397;SDS011;10358;49.590;11.030;2023-08-31T14:40:37;5.10;;;1.80;;
20397;SDS011;10358;49.590;11.030;2023-08-31T14:43:06;3.75;;;1.75;;
20397;SDS011;10358;49.590;11.030;2023-08-31T14:45:31;2.78;;;1.73;;
20397;SDS011;10358;49.590;11.030;2023-08-31T14:47:57;2.97;;;1.67;;
20397;SDS011;10358;49.590;11.030;2023-08-31T14:50:23;4.90;;;1.85;;
20397;SDS011;10358;49.590;11.030;2023-08-31T14:52:48;2.58;;;1.50;;
20397;SDS011;10358;49.590;11.030;2023-08-31T14:55:14;4.53;;;1.85;;
20397;SDS011;10358;49.590;11.030;2023-08-31T14:57:40;2.85;;;1.70;;
20397;SDS011;10358;49.590;11.030;2023-08-31T15:00:07;3.92;;;1.90;;
20397;SDS011;10358;49.590;11.030;2023-08-31T15:02:34;5.97;;;2.00;;